sensor_id;sensor_type;location;lat;lon;timestamp;temperature;humidity
20204;DHT22;10261;49.010;12.034;2022-07-06T00:00:19;18.90;99.20
20204;DHT22;10261;49.010;12.034;2022-07-06T00:02:25;18.90;99.50
20204;DHT22;10261;49.010;12.034;2022-07-06T00:03:27;19.00;99.50
20204;DHT22;10261;49.010;12.034;2022-07-06T00:04:32;18.90;99.30
20204;DHT22;10261;49.010;12.034;2022-07-06T00:05:34;19.00;99.30
20204;DHT22;10261;49.010;12.034;2022-07-06T00:06:38;18.90;99.10
20204;DHT22;10261;49.010;12.034;2022-07-06T00:07:40;18.90;99.10
20204;DHT22;10261;49.010;12.034;2022-07-06T00:08:43;18.90;99.00
20204;DHT22;10261;49.010;12.034;2022-07-06T00:09:45;18.90;99.00
20204;DHT22;10261;49.010;12.034;2022-07-06T00:10:48;18.90;98.80
20204;DHT22;10261;49.010;12.034;2022-07-06T00:11:50;18.90;98.50
20204;DHT22;10261;49.010;12.034;2022-07-06T00:12:53;18.90;98.50
20204;DHT22;10261;49.010;12.034;2022-07-06T00:13:55;18.90;98.30
20204;DHT22;10261;49.010;12.034;2022-07-06T00:14:59;18.90;98.30
20204;DHT22;10261;49.010;12.034;2022-07-06T00:16:01;18.90;98.30
20204;DHT22;10261;49.010;12.034;2022-07-06T00:17:04;18.80;98.10
20204;DHT22;10261;49.010;12.034;2022-07-06T00:18:06;18.80;98.30
20204;DHT22;10261;49.010;12.034;2022-07-06T00:19:09;18.80;98.50
20204;DHT22;10261;49.010;12.034;2022-07-06T00:20:13;18.80;98.60
20204;DHT22;10261;49.010;12.034;2022-07-06T00:21:16;18.80;98.70
20204;DHT22;10261;49.010;12.034;2022-07-06T00:22:18;18.80;98.70
20204;DHT22;10261;49.010;12.034;2022-07-06T00:23:21;18.80;98.60
20204;DHT22;10261;49.010;12.034;2022-07-06T00:24:23;18.80;98.60
20204;DHT22;10261;49.010;12.034;2022-07-06T00:25:26;18.80;98.50
20204;DHT22;10261;49.010;12.034;2022-07-06T00:26:28;18.80;98.20
20204;DHT22;10261;49.010;12.034;2022-07-06T00:27:31;18.80;98.20
20204;DHT22;10261;49.010;12.034;2022-07-06T00:28:33;18.80;98.40
20204;DHT22;10261;49.010;12.034;2022-07-06T00:29:36;18.70;98.50
20204;DHT22;10261;49.010;12.034;2022-07-06T00:30:38;18.70;98.60
20204;DHT22;10261;49.010;12.034;2022-07-06T00:31:41;18.70;98.50
20204;DHT22;10261;49.010;12.034;2022-07-06T00:32:43;18.70;98.50
20204;DHT22;10261;49.010;12.034;2022-07-06T00:33:46;18.70;98.40
20204;DHT22;10261;49.010;12.034;2022-07-06T00:34:48;18.70;98.60
20204;DHT22;10261;49.010;12.034;2022-07-06T00:35:53;18.70;98.40
20204;DHT22;10261;49.010;12.034;2022-07-06T00:36:55;18.70;98.40
20204;DHT22;10261;49.010;12.034;2022-07-06T00:37:58;18.60;98.40
20204;DHT22;10261;49.010;12.034;2022-07-06T00:39:00;18.70;98.50
20204;DHT22;10261;49.010;12.034;2022-07-06T00:40:04;18.70;98.70
20204;DHT22;10261;49.010;12.034;2022-07-06T00:41:06;18.60;98.60
20204;DHT22;10261;49.010;12.034;2022-07-06T00:42:09;18.60;98.70
20204;DHT22;10261;49.010;12.034;2022-07-06T00:43:11;18.60;98.70
20204;DHT22;10261;49.010;12.034;2022-07-06T00:44:14;18.60;98.70
20204;DHT22;10261;49.010;12.034;2022-07-06T00:45:17;18.60;98.70
20204;DHT22;10261;49.010;12.034;2022-07-06T00:46:22;18.60;98.70
20204;DHT22;10261;49.010;12.034;2022-07-06T00:48:29;18.50;98.30
20204;DHT22;10261;49.010;12.034;2022-07-06T00:49:31;18.50;98.40
20204;DHT22;10261;49.010;12.034;2022-07-06T00:50:53;18.50;98.50
20204;DHT22;10261;49.010;12.034;2022-07-06T00:51:57;18.50;98.60
20204;DHT22;10261;49.010;12.034;2022-07-06T00:53:00;18.50;98.70
20204;DHT22;10261;49.010;12.034;2022-07-06T00:54:04;18.50;98.50
20204;DHT22;10261;49.010;12.034;2022-07-06T00:55:07;18.50;98.60
20204;DHT22;10261;49.010;12.034;2022-07-06T00:57:14;18.40;98.80
20204;DHT22;10261;49.010;12.034;2022-07-06T00:58:16;18.40;98.90
20204;DHT22;10261;49.010;12.034;2022-07-06T00:59:20;18.50;98.80
20204;DHT22;10261;49.010;12.034;2022-07-06T01:00:23;18.50;99.00
20204;DHT22;10261;49.010;12.034;2022-07-06T01:01:26;18.40;99.00
20204;DHT22;10261;49.010;12.034;2022-07-06T01:02:30;18.40;99.20
20204;DHT22;10261;49.010;12.034;2022-07-06T01:03:33;18.40;99.30
20204;DHT22;10261;49.010;12.034;2022-07-06T01:04:36;18.40;99.40
20204;DHT22;10261;49.010;12.034;2022-07-06T01:05:39;18.40;99.50
20204;DHT22;10261;49.010;12.034;2022-07-06T01:06:45;18.40;99.70
20204;DHT22;10261;49.010;12.034;2022-07-06T01:07:49;18.40;99.80
20204;DHT22;10261;49.010;12.034;2022-07-06T01:08:52;18.40;99.90
20204;DHT22;10261;49.010;12.034;2022-07-06T01:09:55;18.40;99.90
20204;DHT22;10261;49.010;12.034;2022-07-06T01:10:57;18.40;99.90
20204;DHT22;10261;49.010;12.034;2022-07-06T01:12:00;18.40;99.90
20204;DHT22;10261;49.010;12.034;2022-07-06T01:13:02;18.40;99.90
20204;DHT22;10261;49.010;12.034;2022-07-06T01:14:05;18.40;99.90
20204;DHT22;10261;49.010;12.034;2022-07-06T01:15:10;18.30;99.90
20204;DHT22;10261;49.010;12.034;2022-07-06T01:16:14;18.30;99.90
20204;DHT22;10261;49.010;12.034;2022-07-06T01:17:17;18.30;99.90
20204;DHT22;10261;49.010;12.034;2022-07-06T01:18:19;18.30;99.90
20204;DHT22;10261;49.010;12.034;2022-07-06T01:19:23;18.30;99.90
20204;DHT22;10261;49.010;12.034;2022-07-06T01:20:27;18.30;99.90
20204;DHT22;10261;49.010;12.034;2022-07-06T01:21:31;18.40;99.90
20204;DHT22;10261;49.010;12.034;2022-07-06T01:22:33;18.40;99.90
20204;DHT22;10261;49.010;12.034;2022-07-06T01:23:41;18.40;99.90
20204;DHT22;10261;49.010;12.034;2022-07-06T01:24:44;18.40;99.90
20204;DHT22;10261;49.010;12.034;2022-07-06T01:25:46;18.40;99.90
20204;DHT22;10261;49.010;12.034;2022-07-06T01:26:49;18.30;99.90
20204;DHT22;10261;49.010;12.034;2022-07-06T01:27:51;18.30;99.90
20204;DHT22;10261;49.010;12.034;2022-07-06T01:28:54;18.30;99.90
20204;DHT22;10261;49.010;12.034;2022-07-06T01:29:56;18.30;99.90
20204;DHT22;10261;49.010;12.034;2022-07-06T01:31:01;18.30;99.90
20204;DHT22;10261;49.010;12.034;2022-07-06T01:32:03;18.30;99.90
20204;DHT22;10261;49.010;12.034;2022-07-06T01:35:14;18.30;99.90
20204;DHT22;10261;49.010;12.034;2022-07-06T01:36:18;18.30;99.90
20204;DHT22;10261;49.010;12.034;2022-07-06T01:37:21;18.30;99.90
20204;DHT22;10261;49.010;12.034;2022-07-06T01:38:23;18.30;99.90
20204;DHT22;10261;49.010;12.034;2022-07-06T01:39:26;18.30;99.90
20204;DHT22;10261;49.010;12.034;2022-07-06T01:40:28;18.30;99.90
20204;DHT22;10261;49.010;12.034;2022-07-06T01:41:31;18.30;99.90
20204;DHT22;10261;49.010;12.034;2022-07-06T01:42:34;18.30;99.90
20204;DHT22;10261;49.010;12.034;2022-07-06T01:43:37;18.30;99.90
20204;DHT22;10261;49.010;12.034;2022-07-06T01:44:39;18.30;99.90
20204;DHT22;10261;49.010;12.034;2022-07-06T01:46:44;18.20;99.90
20204;DHT22;10261;49.010;12.034;2022-07-06T01:47:47;18.20;99.90
20204;DHT22;10261;49.010;12.034;2022-07-06T01:48:49;18.20;99.90
20204;DHT22;10261;49.010;12.034;2022-07-06T01:50:55;18.20;99.90
20204;DHT22;10261;49.010;12.034;2022-07-06T01:51:59;18.20;99.90
20204;DHT22;10261;49.010;12.034;2022-07-06T01:53:01;18.20;99.90
20204;DHT22;10261;49.010;12.034;2022-07-06T01:54:04;18.20;99.90
20204;DHT22;10261;49.010;12.034;2022-07-06T01:55:07;18.30;99.90
20204;DHT22;10261;49.010;12.034;2022-07-06T01:56:11;18.20;99.90
20204;DHT22;10261;49.010;12.034;2022-07-06T01:57:13;18.20;99.90
20204;DHT22;10261;49.010;12.034;2022-07-06T01:58:16;18.20;99.90
20204;DHT22;10261;49.010;12.034;2022-07-06T01:59:18;18.20;99.90
20204;DHT22;10261;49.010;12.034;2022-07-06T02:01:23;18.20;99.90
20204;DHT22;10261;49.010;12.034;2022-07-06T02:02:26;18.20;99.90
20204;DHT22;10261;49.010;12.034;2022-07-06T02:03:33;18.10;99.90
20204;DHT22;10261;49.010;12.034;2022-07-06T02:04:36;18.20;99.90
20204;DHT22;10261;49.010;12.034;2022-07-06T02:05:38;18.10;99.90
20204;DHT22;10261;49.010;12.034;2022-07-06T02:06:41;18.10;99.90
20204;DHT22;10261;49.010;12.034;2022-07-06T02:07:44;18.10;99.90
20204;DHT22;10261;49.010;12.034;2022-07-06T02:08:47;18.20;99.90
20204;DHT22;10261;49.010;12.034;2022-07-06T02:09:49;18.20;99.90
20204;DHT22;10261;49.010;12.034;2022-07-06T02:10:52;18.10;99.90
20204;DHT22;10261;49.010;12.034;2022-07-06T02:11:54;18.20;99.90
20204;DHT22;10261;49.010;12.034;2022-07-06T02:12:57;18.10;99.90
20204;DHT22;10261;49.010;12.034;2022-07-06T02:13:59;18.10;99.90
20204;DHT22;10261;49.010;12.034;2022-07-06T02:16:05;18.10;99.90
20204;DHT22;10261;49.010;12.034;2022-07-06T02:18:10;18.10;99.90
20204;DHT22;10261;49.010;12.034;2022-07-06T02:19:13;18.10;99.90
20204;DHT22;10261;49.010;12.034;2022-07-06T02:20:15;18.10;99.90
20204;DHT22;10261;49.010;12.034;2022-07-06T02:22:21;18.10;99.90
20204;DHT22;10261;49.010;12.034;2022-07-06T02:23:25;18.10;99.90
20204;DHT22;10261;49.010;12.034;2022-07-06T02:24:27;18.00;99.90
20204;DHT22;10261;49.010;12.034;2022-07-06T02:26:33;18.00;99.90
20204;DHT22;10261;49.010;12.034;2022-07-06T02:27:36;18.10;99.90
20204;DHT22;10261;49.010;12.034;2022-07-06T02:28:38;18.00;99.90
20204;DHT22;10261;49.010;12.034;2022-07-06T02:30:43;18.10;99.90
20204;DHT22;10261;49.010;12.034;2022-07-06T02:33:52;18.00;99.90
20204;DHT22;10261;49.010;12.034;2022-07-06T02:34:54;18.10;99.90
20204;DHT22;10261;49.010;12.034;2022-07-06T02:36:59;18.00;99.90
20204;DHT22;10261;49.010;12.034;2022-07-06T02:38:03;18.00;99.90
20204;DHT22;10261;49.010;12.034;2022-07-06T02:39:06;18.00;99.80
20204;DHT22;10261;49.010;12.034;2022-07-06T02:40:10;18.10;99.80
20204;DHT22;10261;49.010;12.034;2022-07-06T02:41:12;18.10;99.70
20204;DHT22;10261;49.010;12.034;2022-07-06T02:43:17;18.10;99.70
20204;DHT22;10261;49.010;12.034;2022-07-06T02:45:23;18.10;99.60
20204;DHT22;10261;49.010;12.034;2022-07-06T02:47:28;18.00;99.60
20204;DHT22;10261;49.010;12.034;2022-07-06T02:48:31;17.90;99.80
20204;DHT22;10261;49.010;12.034;2022-07-06T02:49:33;17.90;99.90
20204;DHT22;10261;49.010;12.034;2022-07-06T02:51:39;17.80;99.90
20204;DHT22;10261;49.010;12.034;2022-07-06T02:53:44;17.80;99.70
20204;DHT22;10261;49.010;12.034;2022-07-06T02:54:48;17.80;99.80
20204;DHT22;10261;49.010;12.034;2022-07-06T02:56:54;17.90;99.80
20204;DHT22;10261;49.010;12.034;2022-07-06T02:57:56;17.90;99.70
20204;DHT22;10261;49.010;12.034;2022-07-06T03:00:03;17.90;99.70
20204;DHT22;10261;49.010;12.034;2022-07-06T03:01:06;17.90;99.60
20204;DHT22;10261;49.010;12.034;2022-07-06T03:02:09;17.90;99.50
20204;DHT22;10261;49.010;12.034;2022-07-06T03:04:14;17.90;99.50
20204;DHT22;10261;49.010;12.034;2022-07-06T03:05:16;17.80;99.50
20204;DHT22;10261;49.010;12.034;2022-07-06T03:06:19;17.90;99.70
20204;DHT22;10261;49.010;12.034;2022-07-06T03:08:25;18.00;99.50
20204;DHT22;10261;49.010;12.034;2022-07-06T03:10:32;18.00;99.60
20204;DHT22;10261;49.010;12.034;2022-07-06T03:11:34;18.00;99.60
20204;DHT22;10261;49.010;12.034;2022-07-06T03:13:40;18.00;99.70
20204;DHT22;10261;49.010;12.034;2022-07-06T03:14:43;17.90;99.50
20204;DHT22;10261;49.010;12.034;2022-07-06T03:15:45;17.90;99.60
20204;DHT22;10261;49.010;12.034;2022-07-06T03:17:52;17.80;99.70
20204;DHT22;10261;49.010;12.034;2022-07-06T03:18:55;17.90;99.60
20204;DHT22;10261;49.010;12.034;2022-07-06T03:19:57;17.90;99.80
20204;DHT22;10261;49.010;12.034;2022-07-06T03:21:00;17.90;99.80
20204;DHT22;10261;49.010;12.034;2022-07-06T03:22:05;17.90;99.80
20204;DHT22;10261;49.010;12.034;2022-07-06T03:23:08;18.00;99.70
20204;DHT22;10261;49.010;12.034;2022-07-06T03:24:10;18.00;99.70
20204;DHT22;10261;49.010;12.034;2022-07-06T03:25:13;17.90;99.80
20204;DHT22;10261;49.010;12.034;2022-07-06T03:26:16;17.90;99.70
20204;DHT22;10261;49.010;12.034;2022-07-06T03:27:19;17.90;99.90
20204;DHT22;10261;49.010;12.034;2022-07-06T03:28:21;17.90;99.90
20204;DHT22;10261;49.010;12.034;2022-07-06T03:29:25;17.90;99.60
20204;DHT22;10261;49.010;12.034;2022-07-06T03:30:27;17.90;99.60
20204;DHT22;10261;49.010;12.034;2022-07-06T03:31:30;17.90;99.70
20204;DHT22;10261;49.010;12.034;2022-07-06T03:32:32;17.90;99.70
20204;DHT22;10261;49.010;12.034;2022-07-06T03:33:36;17.90;99.80
20204;DHT22;10261;49.010;12.034;2022-07-06T03:34:38;17.80;99.60
20204;DHT22;10261;49.010;12.034;2022-07-06T03:35:41;17.80;99.60
20204;DHT22;10261;49.010;12.034;2022-07-06T03:36:43;17.80;99.60
20204;DHT22;10261;49.010;12.034;2022-07-06T03:37:46;17.80;99.70
20204;DHT22;10261;49.010;12.034;2022-07-06T03:38:48;17.80;99.70
20204;DHT22;10261;49.010;12.034;2022-07-06T03:39:51;17.80;99.60
20204;DHT22;10261;49.010;12.034;2022-07-06T03:40:53;17.80;99.60
20204;DHT22;10261;49.010;12.034;2022-07-06T03:41:57;17.70;99.50
20204;DHT22;10261;49.010;12.034;2022-07-06T03:44:03;17.70;99.80
20204;DHT22;10261;49.010;12.034;2022-07-06T03:45:06;17.70;99.90
20204;DHT22;10261;49.010;12.034;2022-07-06T03:46:09;17.70;99.90
20204;DHT22;10261;49.010;12.034;2022-07-06T03:47:11;17.70;99.90
20204;DHT22;10261;49.010;12.034;2022-07-06T03:48:14;17.70;99.90
20204;DHT22;10261;49.010;12.034;2022-07-06T03:49:17;17.80;99.80
20204;DHT22;10261;49.010;12.034;2022-07-06T03:50:20;17.90;99.90
20204;DHT22;10261;49.010;12.034;2022-07-06T03:52:25;17.90;99.70
20204;DHT22;10261;49.010;12.034;2022-07-06T03:53:27;17.90;99.70
20204;DHT22;10261;49.010;12.034;2022-07-06T03:55:33;17.90;99.90
20204;DHT22;10261;49.010;12.034;2022-07-06T03:56:36;17.90;99.80
20204;DHT22;10261;49.010;12.034;2022-07-06T03:57:41;17.90;99.80
20204;DHT22;10261;49.010;12.034;2022-07-06T03:58:44;17.90;99.80
20204;DHT22;10261;49.010;12.034;2022-07-06T03:59:46;17.90;99.70
20204;DHT22;10261;49.010;12.034;2022-07-06T04:00:49;18.00;99.60
20204;DHT22;10261;49.010;12.034;2022-07-06T04:01:51;18.00;99.50
20204;DHT22;10261;49.010;12.034;2022-07-06T04:05:00;18.10;99.70
20204;DHT22;10261;49.010;12.034;2022-07-06T04:06:02;18.10;99.60
20204;DHT22;10261;49.010;12.034;2022-07-06T04:07:06;18.10;99.60
20204;DHT22;10261;49.010;12.034;2022-07-06T04:08:09;18.10;99.60
20204;DHT22;10261;49.010;12.034;2022-07-06T04:09:11;18.10;99.70
20204;DHT22;10261;49.010;12.034;2022-07-06T04:10:14;18.20;99.90
20204;DHT22;10261;49.010;12.034;2022-07-06T04:11:16;18.20;99.90
20204;DHT22;10261;49.010;12.034;2022-07-06T04:12:19;18.20;99.90
20204;DHT22;10261;49.010;12.034;2022-07-06T04:13:22;18.20;99.90
20204;DHT22;10261;49.010;12.034;2022-07-06T04:14:26;18.10;99.90
20204;DHT22;10261;49.010;12.034;2022-07-06T04:16:32;18.10;99.90
20204;DHT22;10261;49.010;12.034;2022-07-06T04:17:35;18.20;99.90
20204;DHT22;10261;49.010;12.034;2022-07-06T04:18:56;18.20;99.90
20204;DHT22;10261;49.010;12.034;2022-07-06T04:19:58;18.20;99.90
20204;DHT22;10261;49.010;12.034;2022-07-06T04:21:01;18.10;99.90
20204;DHT22;10261;49.010;12.034;2022-07-06T04:23:11;18.10;99.90
20204;DHT22;10261;49.010;12.034;2022-07-06T04:24:14;18.20;99.90
20204;DHT22;10261;49.010;12.034;2022-07-06T04:25:16;18.20;99.90
20204;DHT22;10261;49.010;12.034;2022-07-06T04:26:19;18.10;99.90
20204;DHT22;10261;49.010;12.034;2022-07-06T04:27:21;18.10;99.90
20204;DHT22;10261;49.010;12.034;2022-07-06T04:28:25;18.10;99.90
20204;DHT22;10261;49.010;12.034;2022-07-06T04:30:31;18.20;99.90
20204;DHT22;10261;49.010;12.034;2022-07-06T04:31:34;18.20;99.90
20204;DHT22;10261;49.010;12.034;2022-07-06T04:32:36;18.20;99.90
20204;DHT22;10261;49.010;12.034;2022-07-06T04:33:39;18.30;99.90
20204;DHT22;10261;49.010;12.034;2022-07-06T04:34:41;18.20;99.80
20204;DHT22;10261;49.010;12.034;2022-07-06T04:35:44;18.30;99.60
20204;DHT22;10261;49.010;12.034;2022-07-06T04:36:46;18.30;99.40
20204;DHT22;10261;49.010;12.034;2022-07-06T04:37:49;18.30;99.50
20204;DHT22;10261;49.010;12.034;2022-07-06T04:39:55;18.40;99.50
20204;DHT22;10261;49.010;12.034;2022-07-06T04:40:58;18.40;99.40
20204;DHT22;10261;49.010;12.034;2022-07-06T04:42:02;18.50;99.70
20204;DHT22;10261;49.010;12.034;2022-07-06T04:43:04;18.40;99.60
20204;DHT22;10261;49.010;12.034;2022-07-06T04:44:08;18.40;99.20
20204;DHT22;10261;49.010;12.034;2022-07-06T04:45:10;18.40;99.00
20204;DHT22;10261;49.010;12.034;2022-07-06T04:46:13;18.50;98.90
20204;DHT22;10261;49.010;12.034;2022-07-06T04:47:16;18.50;98.90
20204;DHT22;10261;49.010;12.034;2022-07-06T04:48:19;18.50;98.50
20204;DHT22;10261;49.010;12.034;2022-07-06T04:49:21;18.50;98.40
20204;DHT22;10261;49.010;12.034;2022-07-06T04:50:24;18.50;98.40
20204;DHT22;10261;49.010;12.034;2022-07-06T04:51:26;18.50;98.50
20204;DHT22;10261;49.010;12.034;2022-07-06T04:52:29;18.50;98.60
20204;DHT22;10261;49.010;12.034;2022-07-06T04:53:31;18.60;98.70
20204;DHT22;10261;49.010;12.034;2022-07-06T04:54:35;18.60;98.60
20204;DHT22;10261;49.010;12.034;2022-07-06T04:55:37;18.60;98.50
20204;DHT22;10261;49.010;12.034;2022-07-06T04:56:40;18.60;98.30
20204;DHT22;10261;49.010;12.034;2022-07-06T04:57:42;18.60;98.40
20204;DHT22;10261;49.010;12.034;2022-07-06T04:58:45;18.70;98.60
20204;DHT22;10261;49.010;12.034;2022-07-06T04:59:49;18.70;98.60
20204;DHT22;10261;49.010;12.034;2022-07-06T05:00:51;18.70;98.50
20204;DHT22;10261;49.010;12.034;2022-07-06T05:01:55;18.70;98.70
20204;DHT22;10261;49.010;12.034;2022-07-06T05:02:57;18.70;98.50
20204;DHT22;10261;49.010;12.034;2022-07-06T05:04:00;18.70;98.50
20204;DHT22;10261;49.010;12.034;2022-07-06T05:05:03;18.60;98.60
20204;DHT22;10261;49.010;12.034;2022-07-06T05:06:07;18.60;98.30
20204;DHT22;10261;49.010;12.034;2022-07-06T05:08:12;18.60;98.00
20204;DHT22;10261;49.010;12.034;2022-07-06T05:10:18;18.70;97.80
20204;DHT22;10261;49.010;12.034;2022-07-06T05:11:21;18.70;97.60
20204;DHT22;10261;49.010;12.034;2022-07-06T05:12:23;18.70;97.30
20204;DHT22;10261;49.010;12.034;2022-07-06T05:13:26;18.70;97.30
20204;DHT22;10261;49.010;12.034;2022-07-06T05:14:28;18.70;97.20
20204;DHT22;10261;49.010;12.034;2022-07-06T05:15:32;18.70;97.20
20204;DHT22;10261;49.010;12.034;2022-07-06T05:16:34;18.70;97.40
20204;DHT22;10261;49.010;12.034;2022-07-06T05:17:37;18.70;97.40
20204;DHT22;10261;49.010;12.034;2022-07-06T05:18:39;18.80;97.50
20204;DHT22;10261;49.010;12.034;2022-07-06T05:19:42;18.70;97.40
20204;DHT22;10261;49.010;12.034;2022-07-06T05:20:45;18.80;97.20
20204;DHT22;10261;49.010;12.034;2022-07-06T05:21:48;18.70;97.10
20204;DHT22;10261;49.010;12.034;2022-07-06T05:22:50;18.70;97.30
20204;DHT22;10261;49.010;12.034;2022-07-06T05:23:54;18.70;97.20
20204;DHT22;10261;49.010;12.034;2022-07-06T05:24:56;18.70;97.20
20204;DHT22;10261;49.010;12.034;2022-07-06T05:25:59;18.80;97.30
20204;DHT22;10261;49.010;12.034;2022-07-06T05:27:01;18.80;97.20
20204;DHT22;10261;49.010;12.034;2022-07-06T05:28:04;18.80;97.30
20204;DHT22;10261;49.010;12.034;2022-07-06T05:29:06;18.80;97.20
20204;DHT22;10261;49.010;12.034;2022-07-06T05:30:10;18.90;97.30
20204;DHT22;10261;49.010;12.034;2022-07-06T05:31:13;18.90;97.30
20204;DHT22;10261;49.010;12.034;2022-07-06T05:32:16;18.90;97.10
20204;DHT22;10261;49.010;12.034;2022-07-06T05:33:18;18.90;97.10
20204;DHT22;10261;49.010;12.034;2022-07-06T05:34:21;18.90;97.20
20204;DHT22;10261;49.010;12.034;2022-07-06T05:35:24;18.90;97.20
20204;DHT22;10261;49.010;12.034;2022-07-06T05:36:47;18.90;97.00
20204;DHT22;10261;49.010;12.034;2022-07-06T05:37:50;18.90;96.90
20204;DHT22;10261;49.010;12.034;2022-07-06T05:38:52;18.90;96.70
20204;DHT22;10261;49.010;12.034;2022-07-06T05:39:55;18.90;96.80
20204;DHT22;10261;49.010;12.034;2022-07-06T05:40:57;18.90;97.00
20204;DHT22;10261;49.010;12.034;2022-07-06T05:42:00;18.90;97.20
20204;DHT22;10261;49.010;12.034;2022-07-06T05:43:02;18.90;97.30
20204;DHT22;10261;49.010;12.034;2022-07-06T05:44:05;19.00;97.30
20204;DHT22;10261;49.010;12.034;2022-07-06T05:45:07;19.00;97.50
20204;DHT22;10261;49.010;12.034;2022-07-06T05:46:11;19.00;97.60
20204;DHT22;10261;49.010;12.034;2022-07-06T05:47:14;19.00;97.30
20204;DHT22;10261;49.010;12.034;2022-07-06T05:48:34;19.00;97.10
20204;DHT22;10261;49.010;12.034;2022-07-06T05:49:55;19.10;97.30
20204;DHT22;10261;49.010;12.034;2022-07-06T05:51:16;19.10;97.30
20204;DHT22;10261;49.010;12.034;2022-07-06T05:52:18;19.10;97.20
20204;DHT22;10261;49.010;12.034;2022-07-06T05:53:21;19.10;96.70
20204;DHT22;10261;49.010;12.034;2022-07-06T05:54:24;19.10;96.80
20204;DHT22;10261;49.010;12.034;2022-07-06T05:55:26;19.10;96.60
20204;DHT22;10261;49.010;12.034;2022-07-06T05:56:29;19.10;96.50
20204;DHT22;10261;49.010;12.034;2022-07-06T05:57:32;19.10;96.60
20204;DHT22;10261;49.010;12.034;2022-07-06T05:58:35;19.20;96.70
20204;DHT22;10261;49.010;12.034;2022-07-06T05:59:37;19.20;96.90
20204;DHT22;10261;49.010;12.034;2022-07-06T06:00:40;19.20;96.90
20204;DHT22;10261;49.010;12.034;2022-07-06T06:01:42;19.20;97.00
20204;DHT22;10261;49.010;12.034;2022-07-06T06:02:47;19.20;97.00
20204;DHT22;10261;49.010;12.034;2022-07-06T06:04:52;19.20;96.60
20204;DHT22;10261;49.010;12.034;2022-07-06T06:05:55;19.20;96.50
20204;DHT22;10261;49.010;12.034;2022-07-06T06:06:58;19.30;96.60
20204;DHT22;10261;49.010;12.034;2022-07-06T06:08:00;19.20;96.70
20204;DHT22;10261;49.010;12.034;2022-07-06T06:09:03;19.20;96.90
20204;DHT22;10261;49.010;12.034;2022-07-06T06:10:07;19.20;96.70
20204;DHT22;10261;49.010;12.034;2022-07-06T06:11:10;19.20;96.30
20204;DHT22;10261;49.010;12.034;2022-07-06T06:12:12;19.20;96.20
20204;DHT22;10261;49.010;12.034;2022-07-06T06:13:15;19.10;96.10
20204;DHT22;10261;49.010;12.034;2022-07-06T06:14:17;19.10;95.80
20204;DHT22;10261;49.010;12.034;2022-07-06T06:15:20;19.10;95.80
20204;DHT22;10261;49.010;12.034;2022-07-06T06:16:22;19.10;95.90
20204;DHT22;10261;49.010;12.034;2022-07-06T06:17:26;19.20;96.50
20204;DHT22;10261;49.010;12.034;2022-07-06T06:18:29;19.20;96.60
20204;DHT22;10261;49.010;12.034;2022-07-06T06:19:39;19.20;96.50
20204;DHT22;10261;49.010;12.034;2022-07-06T06:20:42;19.20;96.30
20204;DHT22;10261;49.010;12.034;2022-07-06T06:21:44;19.20;96.20
20204;DHT22;10261;49.010;12.034;2022-07-06T06:22:48;19.20;95.80
20204;DHT22;10261;49.010;12.034;2022-07-06T06:23:50;19.20;95.90
20204;DHT22;10261;49.010;12.034;2022-07-06T06:24:53;19.20;96.50
20204;DHT22;10261;49.010;12.034;2022-07-06T06:25:55;19.20;97.10
20204;DHT22;10261;49.010;12.034;2022-07-06T06:26:58;19.20;97.70
20204;DHT22;10261;49.010;12.034;2022-07-06T06:28:01;19.20;98.20
20204;DHT22;10261;49.010;12.034;2022-07-06T06:29:05;19.20;98.30
20204;DHT22;10261;49.010;12.034;2022-07-06T06:30:08;19.30;98.60
20204;DHT22;10261;49.010;12.034;2022-07-06T06:31:11;19.30;98.50
20204;DHT22;10261;49.010;12.034;2022-07-06T06:32:14;19.30;98.20
20204;DHT22;10261;49.010;12.034;2022-07-06T06:33:18;19.30;98.30
20204;DHT22;10261;49.010;12.034;2022-07-06T06:34:22;19.30;98.10
20204;DHT22;10261;49.010;12.034;2022-07-06T06:35:25;19.30;97.60
20204;DHT22;10261;49.010;12.034;2022-07-06T06:36:28;19.30;97.40
20204;DHT22;10261;49.010;12.034;2022-07-06T06:37:31;19.40;97.40
20204;DHT22;10261;49.010;12.034;2022-07-06T06:38:33;19.40;97.10
20204;DHT22;10261;49.010;12.034;2022-07-06T06:39:36;19.40;96.90
20204;DHT22;10261;49.010;12.034;2022-07-06T06:40:38;19.40;96.90
20204;DHT22;10261;49.010;12.034;2022-07-06T06:41:41;19.50;97.20
20204;DHT22;10261;49.010;12.034;2022-07-06T06:42:44;19.50;96.90
20204;DHT22;10261;49.010;12.034;2022-07-06T06:43:46;19.50;96.50
20204;DHT22;10261;49.010;12.034;2022-07-06T06:44:49;19.50;96.20
20204;DHT22;10261;49.010;12.034;2022-07-06T06:45:51;19.50;96.20
20204;DHT22;10261;49.010;12.034;2022-07-06T06:46:54;19.50;96.30
20204;DHT22;10261;49.010;12.034;2022-07-06T06:47:57;19.50;96.30
20204;DHT22;10261;49.010;12.034;2022-07-06T06:50:04;19.50;96.60
20204;DHT22;10261;49.010;12.034;2022-07-06T06:51:07;19.50;96.60
20204;DHT22;10261;49.010;12.034;2022-07-06T06:52:09;19.50;96.70
20204;DHT22;10261;49.010;12.034;2022-07-06T06:53:32;19.50;96.70
20204;DHT22;10261;49.010;12.034;2022-07-06T06:54:40;19.50;96.50
20204;DHT22;10261;49.010;12.034;2022-07-06T06:55:42;19.50;96.20
20204;DHT22;10261;49.010;12.034;2022-07-06T06:56:45;19.50;96.20
20204;DHT22;10261;49.010;12.034;2022-07-06T06:57:47;19.50;96.30
20204;DHT22;10261;49.010;12.034;2022-07-06T06:58:50;19.50;96.50
20204;DHT22;10261;49.010;12.034;2022-07-06T07:00:13;19.50;96.60
20204;DHT22;10261;49.010;12.034;2022-07-06T07:01:16;19.50;96.60
20204;DHT22;10261;49.010;12.034;2022-07-06T07:02:18;19.50;96.70
20204;DHT22;10261;49.010;12.034;2022-07-06T07:03:21;19.60;96.70
20204;DHT22;10261;49.010;12.034;2022-07-06T07:04:23;19.50;96.60
20204;DHT22;10261;49.010;12.034;2022-07-06T07:05:28;19.60;96.70
20204;DHT22;10261;49.010;12.034;2022-07-06T07:06:31;19.60;96.70
20204;DHT22;10261;49.010;12.034;2022-07-06T07:07:33;19.60;96.80
20204;DHT22;10261;49.010;12.034;2022-07-06T07:08:36;19.60;96.80
20204;DHT22;10261;49.010;12.034;2022-07-06T07:09:38;19.60;97.00
20204;DHT22;10261;49.010;12.034;2022-07-06T07:10:41;19.60;96.90
20204;DHT22;10261;49.010;12.034;2022-07-06T07:11:45;19.60;97.00
20204;DHT22;10261;49.010;12.034;2022-07-06T07:12:47;19.70;97.00
20204;DHT22;10261;49.010;12.034;2022-07-06T07:13:50;19.70;97.00
20204;DHT22;10261;49.010;12.034;2022-07-06T07:14:52;19.70;97.10
20204;DHT22;10261;49.010;12.034;2022-07-06T07:15:55;19.70;96.70